首页
METAR-TAF:

METAR-TAF

机场 :

石油平台

Sleipner, 挪威

纬度: 58-22-00N, 经度: 001-54-25E, 海拔: 50米

当前天气观测

该预报发布于39分钟前的20:50 UTC
风速18节,风向西转西北
温度 10°C
湿度 100%
气压 995 hPa
能見度: 6000

METAR: ENSL 062050Z AUTO 30018KT 6000NDV BKN004/// 10/10 Q0995 W08/S3

时间: 23:29 (21:29 UTC)


TAF: 丢失

超过4000个机场的气象观测和天气预报(METAR&TAF报告)。

可查询的气象台以黄色和红色小点在地图上表示。

将鼠标移到小点上方,可查看气象台名称。

然后点击查看天气观测和预报。

如需切换地图:点击带黑十字的绿色按钮放大地图;点击带横线的绿色按钮缩小地图;或者点击绿色箭头查看邻近地区的地图。


METAR-TAF: